Latest Weather Observations for Laverton

IDV60801

Issued at 6:52 pm EST Monday 4 July 2022 (issued every 10 minutes, with the page automatically refreshed every 10 minutes)

About weather observations | Map of weather stations | Latest weather observations for VIC | Other Formats
Station Details ID: 087031 Name: LAVERTON RAAF Lat: -37.86 Lon: 144.76 Height: 20.1 m
Data from the previous 72 hours. | See also: Recent months at Laverton
Date/Time
EST
Temp
°C
App
Temp
°C
Dew
Point
°C
Rel
Hum
%
Delta-T
°C
Wind Press
QNH
hPa
Press
MSL
hPa
Rain since
9am
mm
Dir  Spd
km/h
Gust
km/h
Spd
kts
Gust
kts
04/06:30pm 11.3 9.2 9.6 89 0.9 S 11 17 6 9 1027.3 1027.3 0.0
04/06:00pm 11.6 9.4 9.5 87 1.1 S 11 19 6 10 1027.3 1027.3 0.0
04/05:30pm 11.7 8.7 9.3 85 1.2 S 15 20 8 11 1027.3 1027.3 0.0
04/05:00pm 11.7 8.3 9.1 84 1.3 S 17 24 9 13 1027.2 1027.2 0.0
04/04:30pm 11.9 8.1 8.9 82 1.5 S 19 30 10 16 1027.2 1027.2 0.0
04/04:00pm 12.4 8.8 8.5 77 1.9 S 17 24 9 13 1027.1 1027.1 0.0
04/03:30pm 12.8 9.0 7.5 70 2.6 S 17 22 9 12 1026.9 1026.9 0.0
04/03:00pm 12.6 8.7 7.1 69 2.6 S 17 28 9 15 1026.9 1026.9 0.0
04/02:30pm 12.8 8.9 7.0 68 2.8 SSE 17 20 9 11 1026.9 1026.9 0.0
04/02:00pm 12.6 9.0 6.6 67 2.8 SSE 15 22 8 12 1027.0 1027.0 0.0
04/01:30pm 12.8 8.3 6.8 67 2.9 S 20 28 11 15 1027.4 1027.4 0.0
04/01:00pm 12.7 8.7 6.7 67 2.9 SSE 17 26 9 14 1027.8 1027.8 0.0
04/12:30pm 12.4 8.0 6.5 67 2.8 SSE 19 26 10 14 1028.1 1028.1 0.0
04/12:00pm 12.5 8.1 6.5 67 2.8 S 19 28 10 15 1028.4 1028.4 0.0
04/11:30am 12.1 8.0 6.2 67 2.8 SE 17 26 9 14 1028.6 1028.6 0.0
04/11:00am 12.0 8.9 7.3 73 2.3 SSE 13 19 7 10 1028.7 1028.7 0.0
04/10:30am 11.7 8.5 7.0 73 2.2 SE 13 20 7 11 1029.1 1029.1 0.0
04/10:00am 11.5 7.1 6.6 72 2.3 SSE 19 26 10 14 1028.9 1028.9 0.0
04/09:30am 11.2 7.1 6.3 72 2.3 SSE 17 24 9 13 1028.6 1028.6 0.0
04/09:00am 10.7 7.1 6.6 76 1.9 SSE 15 20 8 11 1028.5 1028.5 0.0
04/08:30am 9.9 6.6 6.4 79 1.6 SSE 13 20 7 11 1028.3 1028.3 0.0
04/08:00am 9.0 6.0 6.1 82 1.3 SSE 11 17 6 9 1028.1 1028.1 0.0
04/07:30am 8.9 5.6 6.2 83 1.2 SSE 13 20 7 11 1027.8 1027.8 0.0
04/07:00am 8.9 5.2 6.2 83 1.2 SSE 15 22 8 12 1027.6 1027.6 0.0
04/06:30am 8.9 5.2 6.3 84 1.2 SSE 15 22 8 12 1027.4 1027.4 0.0
04/06:00am 8.9 5.6 6.3 84 1.2 SSE 13 20 7 11 1027.2 1027.2 0.0
04/05:30am 9.2 5.6 6.6 84 1.2 SSE 15 20 8 11 1027.0 1027.0 0.0
04/05:00am 8.9 5.2 6.3 84 1.2 SSE 15 20 8 11 1026.9 1026.9 0.0
04/04:30am 8.8 5.1 6.3 84 1.2 S 15 20 8 11 1026.8 1026.8 0.0
04/04:00am 9.0 5.2 5.9 81 1.4 SSE 15 20 8 11 1026.9 1026.9 0.0
04/03:30am 9.0 4.8 5.7 80 1.5 SSE 17 22 9 12 1027.0 1027.0 0.0
04/03:00am 8.8 5.0 5.7 81 1.4 SSE 15 22 8 12 1027.1 1027.1 0.0
04/02:30am 8.5 5.1 5.8 83 1.2 S 13 17 7 9 1027.1 1027.1 0.0
04/02:00am 8.7 5.2 5.6 81 1.4 SSE 13 19 7 10 1027.1 1027.1 0.0
04/01:30am 8.9 5.0 5.5 79 1.5 S 15 20 8 11 1027.1 1027.1 0.0
04/01:00am 9.4 5.5 5.2 75 1.9 SSE 15 20 8 11 1027.2 1027.2 0.0
04/12:30am 9.5 5.2 5.1 74 2.0 S 17 24 9 13 1027.4 1027.4 0.0
04/12:00am 8.8 4.7 4.6 75 1.8 SSE 15 22 8 12 1027.6 1027.6 0.0
 
Date/Time
EST
Temp
°C
App
Temp
°C
Dew
Point
°C
Rel
Hum
%
Delta-T
°C
Wind Press
QNH
hPa
Press
MSL
hPa
Rain since
9am
mm
Dir  Spd
km/h
Gust
km/h
Spd
kts
Gust
kts
03/11:30pm 8.8 5.5 4.6 75 1.9 S 11 17 6 9 1027.7 1027.7 0.0
03/11:00pm 8.0 4.7 4.4 78 1.6 S 11 15 6 8 1027.6 1027.6 0.0
03/10:30pm 8.1 4.7 4.1 76 1.7 S 11 15 6 8 1027.6 1027.6 0.0
03/10:00pm 8.9 5.2 4.3 73 2.0 S 13 17 7 9 1027.7 1027.7 0.0
03/09:30pm 9.4 5.7 4.4 71 2.2 S 13 19 7 10 1027.8 1027.8 0.0
03/09:00pm 9.1 5.4 4.3 72 2.1 S 13 19 7 10 1027.8 1027.8 0.0
03/08:30pm 10.2 6.0 3.9 65 2.8 S 15 20 8 11 1027.9 1027.9 0.0
03/08:00pm 10.3 6.6 4.2 66 2.7 SSE 13 20 7 11 1028.0 1028.0 0.0
03/07:30pm 10.3 6.1 4.0 65 2.8 SSE 15 24 8 13 1027.8 1027.8 0.0
03/07:00pm 10.6 6.5 4.1 64 2.9 SSE 15 22 8 12 1027.9 1027.9 0.0
03/06:30pm 10.6 6.9 4.3 65 2.8 SSE 13 19 7 10 1027.8 1027.8 0.0
03/06:00pm 10.7 6.6 4.6 66 2.7 SSE 15 22 8 12 1027.6 1027.6 0.0
03/05:30pm 10.8 6.3 4.3 64 2.9 SSE 17 24 9 13 1027.4 1027.4 0.0
03/05:00pm 10.9 6.9 4.8 66 2.7 SSE 15 20 8 11 1027.5 1027.5 0.0
03/04:30pm 11.2 7.2 4.9 65 2.9 SSE 15 22 8 12 1027.3 1027.3 0.0
03/04:00pm 11.2 6.4 4.9 65 2.8 SSE 19 24 10 13 1027.2 1027.2 0.0
03/03:30pm 11.3 6.2 4.1 61 3.2 SE 20 30 11 16 1027.2 1027.2 0.0
03/03:00pm 11.7 6.9 4.7 62 3.2 SSE 19 28 10 15 1027.2 1027.2 0.0
03/02:30pm 11.8 6.4 4.5 61 3.3 SSE 22 33 12 18 1027.2 1027.2 0.0
03/02:00pm 11.7 6.3 4.7 62 3.2 SSE 22 32 12 17 1027.4 1027.4 0.0
03/01:30pm 11.6 6.4 5.7 67 2.7 S 22 32 12 17 1027.7 1027.7 0.0
03/01:00pm 11.6 6.9 5.3 65 2.9 SSE 19 26 10 14 1028.0 1028.0 0.0
03/12:30pm 11.9 7.3 5.5 65 3.0 SSE 19 30 10 16 1028.4 1028.4 0.0
03/12:00pm 12.0 7.0 4.7 61 3.3 SE 20 33 11 18 1028.7 1028.7 0.0
03/11:30am 12.1 7.7 5.0 62 3.3 SE 17 24 9 13 1029.1 1029.1 0.0
03/11:00am 11.5 6.7 4.5 62 3.1 SE 19 32 10 17 1029.5 1029.5 0.0
03/10:30am 11.4 6.6 4.4 62 3.2 SE 19 26 10 14 1029.5 1029.5 0.0
03/10:00am 11.3 6.0 5.2 66 2.8 SSE 22 32 12 17 1029.5 1029.5 0.0
03/09:30am 10.1 4.9 3.8 65 2.8 SE 20 28 11 15 1029.3 1029.3 0.0
03/09:00am 10.0 5.6 4.6 69 2.4 SE 17 24 9 13 1029.4 1029.4 0.2
03/08:30am 9.3 6.1 5.1 75 1.9 SSE 11 19 6 10 1029.4 1029.4 0.2
03/08:00am 8.3 5.0 4.3 76 1.7 SSE 11 17 6 9 1029.2 1029.2 0.2
03/07:30am 8.8 5.7 5.5 80 1.5 SE 11 17 6 9 1029.1 1029.1 0.2
03/07:00am 7.5 5.1 7.2 98 0.1 SSE 9 15 5 8 1028.9 1028.9 0.2
03/06:30am 6.5 4.4 6.5 100 0.0 WSW 7 13 4 7 1028.7 1028.7 0.2
03/06:00am 6.2 4.0 6.2 100 0.0 W 7 9 4 5 1028.5 1028.5 0.2
03/05:30am 6.1 3.9 6.1 100 0.0 W 7 9 4 5 1028.6 1028.6 0.2
03/05:00am 5.7 3.4 5.7 100 0.0 W 7 9 4 5 1028.5 1028.5 0.2
03/04:53am 5.7 3.0 5.7 100 0.0 W 9 11 5 6 1028.5 1028.5 0.2
03/04:32am 5.5 3.2 5.5 100 0.0 W 7 9 4 5 1028.5 1028.5 0.2
03/04:30am 5.4 3.0 5.4 100 0.0 W 7 9 4 5 1028.5 1028.5 0.2
03/04:00am 5.2 2.4 5.2 100 0.0 W 9 9 5 5 1028.7 1028.7 0.2
03/03:51am 5.1 2.3 5.1 100 0.0 W 9 11 5 6 1028.7 1028.7 0.2
03/03:30am 4.9 2.4 4.9 100 0.0 W 7 9 4 5 1028.9 1028.9 0.2
03/03:17am 4.8 1.9 4.8 100 0.0 W 9 9 5 5 1028.9 1028.9 0.2
03/03:03am 4.6 1.7 4.6 100 0.0 W 9 9 5 5 1029.0 1029.0 0.2
03/03:00am 4.6 1.7 4.6 100 0.0 W 9 13 5 7 1029.0 1029.0 0.2
03/02:30am 3.9 0.9 3.9 100 0.0 W 9 11 5 6 1029.1 1029.1 0.2
03/02:13am 3.9 0.5 3.9 100 0.0 W 11 13 6 7 1029.2 1029.2 0.2
03/02:00am 3.4 0.3 3.4 100 0.0 W 9 13 5 7 1029.2 1029.2 0.2
03/01:30am 3.6 0.1 3.6 100 0.0 W 11 13 6 7 1029.0 1029.0 0.2
03/01:00am 3.5 0.4 3.5 100 0.0 W 9 11 5 6 1029.1 1029.1 0.2
03/12:30am 3.8 0.7 3.8 100 0.0 W 9 11 5 6 1029.4 1029.4 0.2
03/12:22am 3.6 0.5 3.6 100 0.0 W 9 13 5 7 1029.4 1029.4 0.2
03/12:00am 4.1 0.7 4.1 100 0.0 W 11 13 6 7 1029.5 1029.5 0.2
 
Date/Time
EST
Temp
°C
App
Temp
°C
Dew
Point
°C
Rel
Hum
%
Delta-T
°C
Wind Press
QNH
hPa
Press
MSL
hPa
Rain since
9am
mm
Dir  Spd
km/h
Gust
km/h
Spd
kts
Gust
kts
02/11:30pm 4.4 1.5 4.4 100 0.0 W 9 11 5 6 1029.7 1029.7 0.2
02/11:00pm 4.0 0.6 3.9 99 0.0 W 11 13 6 7 1029.6 1029.6 0.2
02/10:30pm 4.6 1.7 4.5 99 0.0 WSW 9 11 5 6 1029.7 1029.7 0.2
02/10:00pm 4.4 1.4 4.3 99 0.0 WSW 9 11 5 6 1029.7 1029.7 0.2
02/09:30pm 4.4 1.1 4.3 99 0.0 WSW 11 13 6 7 1029.8 1029.8 0.2
02/09:00pm 5.4 2.2 5.3 99 0.0 SW 11 11 6 6 1029.8 1029.8 0.2
02/08:30pm 6.5 4.3 6.4 99 0.0 SSW 7 7 4 4 1029.8 1029.8 0.2
02/08:00pm 6.9 4.8 6.5 97 0.2 SSW 7 7 4 4 1029.8 1029.8 0.2
02/07:30pm 7.6 5.6 6.2 91 0.6 SSW 6 7 3 4 1029.6 1029.6 0.2
02/07:00pm 8.0 5.8 6.1 88 0.9 SSW 7 9 4 5 1029.5 1029.5 0.2
02/06:30pm 8.3 5.6 5.8 84 1.1 SSW 9 13 5 7 1029.4 1029.4 0.2
02/06:00pm 8.9 5.4 5.3 78 1.6 SSW 13 17 7 9 1029.2 1029.2 0.2
02/05:30pm 9.3 5.8 5.3 76 1.8 SSW 13 19 7 10 1029.2 1029.2 0.2
02/05:00pm 10.1 6.6 5.3 72 2.2 S 13 19 7 10 1029.1 1029.1 0.2
02/04:30pm 10.8 6.5 5.3 69 2.5 S 17 24 9 13 1029.2 1029.2 0.2
02/04:00pm 11.3 6.6 5.2 66 2.8 S 19 24 10 13 1029.0 1029.0 0.2
02/03:30pm 11.6 7.8 5.7 67 2.7 S 15 20 8 11 1029.0 1029.0 0.2
02/03:00pm 11.3 7.9 6.0 70 2.5 S 13 20 7 11 1029.1 1029.1 0.2
02/02:30pm 11.2 7.9 6.5 73 2.2 SSE 13 22 7 12 1029.3 1029.3 0.2
02/02:00pm 11.3 7.6 6.2 71 2.4 SSE 15 20 8 11 1029.5 1029.5 0.2
02/01:30pm 11.2 7.7 7.1 76 2.0 SSE 15 20 8 11 1029.8 1029.8 0.2
02/01:00pm 11.4 7.9 7.3 76 2.0 SSE 15 20 8 11 1030.1 1030.1 0.2
02/12:30pm 11.0 7.6 7.7 80 1.6 SSE 15 22 8 12 1030.4 1030.4 0.2
02/12:00pm 10.7 7.2 7.0 78 1.7 SSE 15 19 8 10 1030.7 1030.7 0.2
02/11:30am 10.5 8.0 8.4 87 1.0 S 11 15 6 8 1031.1 1031.1 0.0
02/11:06am 9.6 7.7 9.0 96 0.3 SSW 9 11 5 6 1031.2 1031.2 0.0
02/11:00am 9.4 7.5 8.9 97 0.2 SSW 9 11 5 6 1031.3 1031.3 0.0
02/10:40am 8.6 6.4 8.0 96 0.3 SSW 9 11 5 6 1031.5 1031.5 0.0
02/10:30am 8.7 6.9 7.9 95 0.4 SSW 7 9 4 5 1031.5 1031.5 0.0
02/10:24am 8.6 6.3 7.5 93 0.5 SSW 9 13 5 7 1031.5 1031.5 0.0
02/10:09am 8.5 6.1 7.1 91 0.7 SW 9 11 5 6 1031.4 1031.4 0.0
02/10:00am 8.4 5.6 7.0 91 0.6 SW 11 17 6 9 1031.4 1031.4 0.0
02/09:30am 8.2 5.4 7.1 93 0.5 WSW 11 15 6 8 1031.0 1031.0 0.0
02/09:00am 7.9 5.1 7.1 95 0.4 SW 11 17 6 9 1030.9 1030.9 0.4
02/08:30am 7.8 5.6 7.7 99 0.0 SW 9 13 5 7 1030.9 1030.9 0.4
02/08:05am 7.9 5.7 7.8 99 0.0 SSW 9 13 5 7 1030.9 1030.9 0.4
02/08:00am 7.9 5.7 7.8 99 0.0 SW 9 13 5 7 1030.9 1030.9 0.4
02/07:30am 8.0 6.2 8.0 100 0.0 WSW 7 9 4 5 1030.7 1030.7 0.4
02/07:00am 7.8 5.6 7.8 100 0.0 SW 9 11 5 6 1030.5 1030.5 0.4
02/06:30am 7.8 5.6 7.8 100 0.0 SW 9 13 5 7 1030.3 1030.3 0.4
02/06:00am 7.7 5.1 7.7 100 0.0 SW 11 15 6 8 1030.3 1030.3 0.4
02/05:30am 7.8 5.2 7.8 100 0.0 SW 11 17 6 9 1030.2 1030.2 0.4
02/05:24am 7.6 4.6 7.6 100 0.0 WSW 13 17 7 9 1030.1 1030.1 0.4
02/05:00am 7.5 5.2 7.4 99 0.0 WSW 9 13 5 7 1030.2 1030.2 0.4
02/04:30am 7.1 4.3 7.0 99 0.0 WSW 11 15 6 8 1030.2 1030.2 0.4
02/04:00am 7.2 4.8 7.1 99 0.0 SW 9 13 5 7 1030.4 1030.4 0.4
02/03:30am 7.2 4.4 7.1 99 0.0 SW 11 15 6 8 1030.4 1030.4 0.4
02/03:00am 7.1 4.3 7.0 99 0.0 SW 11 15 6 8 1030.7 1030.7 0.4
02/02:30am 7.3 4.9 7.0 98 0.1 WSW 9 15 5 8 1031.0 1031.0 0.4
02/02:00am 7.5 5.1 6.9 96 0.3 SW 9 13 5 7 1030.8 1030.8 0.4
02/01:30am 7.7 5.3 6.8 94 0.4 SW 9 11 5 6 1030.8 1030.8 0.4
02/01:00am 8.3 5.9 6.8 90 0.7 SW 9 13 5 7 1030.9 1030.9 0.4
02/12:30am 8.3 6.2 6.6 89 0.8 SW 7 9 4 5 1031.1 1031.1 0.4
02/12:00am 8.1 5.6 6.6 90 0.7 SW 9 11 5 6 1031.1 1031.1 0.4
 
Date/Time
EST
Temp
°C
App
Temp
°C
Dew
Point
°C
Rel
Hum
%
Delta-T
°C
Wind Press
QNH
hPa
Press
MSL
hPa
Rain since
9am
mm
Dir  Spd
km/h
Gust
km/h
Spd
kts
Gust
kts
01/11:30pm 9.3 7.0 7.3 87 0.9 SSW 9 13 5 7 1031.1 1031.1 0.4
01/11:00pm 10.0 8.2 7.9 87 1.0 S 7 9 4 5 1031.1 1031.1 0.4
01/10:30pm 10.2 7.9 7.6 84 1.2 S 9 13 5 7 1031.1 1031.1 0.4
01/10:00pm 10.5 8.2 7.6 82 1.4 SSE 9 13 5 7 1031.2 1031.2 0.4
01/09:30pm 10.5 8.7 7.9 84 1.3 SSE 7 11 4 6 1031.3 1031.3 0.4
01/09:00pm 10.6 8.4 7.8 83 1.3 SSE 9 13 5 7 1031.3 1031.3 0.4
01/08:30pm 10.8 8.6 8.0 83 1.4 SE 9 13 5 7 1031.3 1031.3 0.4
01/08:00pm 10.7 9.1 8.1 84 1.3 S 6 9 3 5 1031.3 1031.3 0.2
01/07:30pm 10.8 9.0 8.0 83 1.4 S 7 13 4 7 1031.0 1031.0 0.2
01/07:00pm 11.0 8.4 7.7 80 1.6 S 11 15 6 8 1030.9 1030.9 0.2

Other formats

Comma delimited format used in spreadsheet applications
http://www.bom.gov.au/fwo/IDV60801/IDV60801.94865.axf

JavaScript Object Notation format (JSON) in row-major order
http://www.bom.gov.au/fwo/IDV60801/IDV60801.94865.json

Data quality

Most of these data are generated automatically and are frequently updated. Quality checks on data are not normally performed. It is possible for incorrect values to appear. Refer to information at About Latest Weather Observations and please check the disclaimer before using these data.